Exeter, New Hampshire
Current Conditions -  °F | °C
As of 4:58 PM on Saturday 20 Dec 2014 (Local Time) from KPSM Reporting Station
Broken Clouds Broken Clouds  
Wind Chill: 23°   Ceiling: 3300
Heat Index: 31°   Visibility: 10mi
Dew Point: 24°   Wind: 9mph
Humidity: 76%   Direction: 20°NNE
Pressure: 30.29"   Gusts: NA
Location:  42.98°N, 70.95°W
Report Text: KPSM 202158Z 02008KT 10SM BKN033 M01/M04 A3029 RMK AO2A SLP262 T10061043
Loading
Personal Weather Stations






























Interactive Weather Map New forecast layout! Learn more

10-Day Weather Forecast

Advertisements
Track Severe Weather on mobile